createdAt,value
2019-02-11T00:00:37.957Z,5.40
2019-02-11T00:02:41.858Z,5.40
2019-02-11T00:04:45.686Z,5.40
2019-02-11T00:06:49.710Z,5.40
2019-02-11T00:08:53.608Z,5.50
2019-02-11T00:10:57.513Z,5.50
2019-02-11T00:13:01.405Z,5.50
2019-02-11T00:15:06.467Z,5.50
2019-02-11T00:17:10.318Z,5.50
2019-02-11T00:19:14.220Z,5.50
2019-02-11T00:21:18.136Z,5.60
2019-02-11T00:23:21.992Z,5.60
2019-02-11T00:25:25.967Z,5.50
2019-02-11T00:27:29.827Z,5.50
2019-02-11T00:29:33.698Z,5.60
2019-02-11T00:31:37.634Z,5.60
2019-02-11T00:33:41.506Z,5.50
2019-02-11T00:35:45.365Z,5.50
2019-02-11T00:37:49.263Z,5.50
2019-02-11T00:39:53.147Z,5.50
2019-02-11T00:41:57.060Z,5.50
2019-02-11T00:44:00.910Z,5.50
2019-02-11T00:46:04.793Z,5.50
2019-02-11T00:48:08.710Z,5.50
2019-02-11T00:50:12.596Z,5.50
2019-02-11T00:52:16.430Z,5.40
2019-02-11T00:54:20.360Z,5.40
2019-02-11T00:56:24.210Z,5.40
2019-02-11T00:58:28.105Z,5.40
2019-02-11T01:00:31.999Z,5.40
2019-02-11T01:02:35.861Z,5.40
2019-02-11T01:04:39.747Z,5.40
2019-02-11T01:06:43.610Z,5.40
2019-02-11T01:08:47.471Z,5.40
2019-02-11T01:10:51.378Z,5.40
2019-02-11T01:12:55.360Z,5.40
2019-02-11T01:14:59.210Z,5.50
2019-02-11T01:17:03.121Z,5.50
2019-02-11T01:19:07.008Z,5.50
2019-02-11T01:21:10.886Z,5.50
2019-02-11T01:23:14.741Z,5.50
2019-02-11T01:25:18.621Z,5.50
2019-02-11T01:27:22.506Z,5.40
2019-02-11T01:29:26.378Z,5.40
2019-02-11T01:31:30.316Z,5.40
2019-02-11T01:33:34.245Z,5.50
2019-02-11T01:35:38.116Z,5.40
2019-02-11T01:37:42.033Z,5.40
2019-02-11T01:39:45.954Z,5.40
2019-02-11T01:41:49.860Z,5.40
2019-02-11T01:43:53.857Z,5.40
2019-02-11T01:45:57.731Z,5.30
2019-02-11T01:48:02.080Z,5.30
2019-02-11T01:50:12.104Z,5.30
2019-02-11T01:52:15.970Z,5.30
2019-02-11T01:54:20.090Z,5.30
2019-02-11T01:56:24.772Z,5.20
2019-02-11T01:58:29.033Z,5.30
2019-02-11T02:00:33.272Z,5.20
2019-02-11T02:02:37.283Z,5.20
2019-02-11T02:04:41.138Z,5.20
2019-02-11T02:06:45.063Z,5.10
2019-02-11T02:08:49.330Z,5.10
2019-02-11T02:10:53.755Z,5.10
2019-02-11T02:12:58.819Z,5.20
2019-02-11T02:15:02.741Z,5.20
2019-02-11T02:17:07.498Z,5.20
2019-02-11T02:19:13.722Z,5.20
2019-02-11T02:21:17.667Z,5.20
2019-02-11T02:23:21.619Z,5.20
2019-02-11T02:25:25.496Z,5.20
2019-02-11T02:27:29.656Z,5.30
2019-02-11T02:31:38.327Z,5.20
2019-02-11T02:33:42.219Z,5.30
2019-02-11T02:35:46.128Z,5.20
2019-02-11T02:37:50.033Z,5.20
2019-02-11T02:39:53.959Z,5.20
2019-02-11T02:41:57.825Z,5.30
2019-02-11T02:44:01.932Z,5.30
2019-02-11T02:46:11.123Z,5.30
2019-02-11T02:48:15.313Z,5.30
2019-02-11T02:50:19.357Z,5.20
2019-02-11T02:52:23.262Z,5.20
2019-02-11T02:54:27.174Z,5.20
2019-02-11T02:56:31.080Z,5.20
2019-02-11T02:58:36.145Z,5.20
2019-02-11T03:00:40.115Z,5.20
2019-02-11T03:02:43.956Z,5.20
2019-02-11T03:04:47.809Z,5.10
2019-02-11T03:06:51.848Z,5.20
2019-02-11T03:08:56.998Z,5.20
2019-02-11T03:11:01.236Z,5.30
2019-02-11T03:13:05.262Z,5.20
2019-02-11T03:15:10.753Z,5.30
2019-02-11T03:17:15.015Z,5.30
2019-02-11T03:19:19.128Z,5.30
2019-02-11T03:21:23.732Z,5.30
2019-02-11T03:23:28.002Z,5.40
2019-02-11T03:25:31.921Z,5.40
2019-02-11T03:27:36.378Z,5.40
2019-02-11T03:29:40.694Z,5.30
2019-02-11T03:31:44.937Z,5.40
2019-02-11T03:33:49.266Z,5.40
2019-02-11T03:35:53.667Z,5.40
2019-02-11T03:37:58.053Z,5.40
2019-02-11T03:40:02.566Z,5.40
2019-02-11T03:42:06.668Z,5.40
2019-02-11T03:44:15.093Z,5.40
2019-02-11T03:46:16.345Z,5.40
2019-02-11T03:48:20.599Z,5.40
2019-02-11T03:50:25.289Z,5.50
2019-02-11T03:52:29.346Z,5.50
2019-02-11T03:54:33.774Z,5.50
2019-02-11T03:56:38.301Z,5.50
2019-02-11T03:58:42.234Z,5.50
2019-02-11T04:00:46.507Z,5.50
2019-02-11T04:02:51.106Z,5.50
2019-02-11T04:04:55.386Z,5.50
2019-02-11T04:06:59.593Z,5.60
2019-02-11T04:09:04.862Z,5.50
2019-02-11T04:11:11.018Z,5.60
2019-02-11T04:13:15.602Z,5.60
2019-02-11T04:15:19.497Z,5.60
2019-02-11T04:17:24.130Z,5.60
2019-02-11T04:19:28.276Z,5.60
2019-02-11T04:21:32.762Z,5.60
2019-02-11T04:23:37.256Z,5.60
2019-02-11T04:25:41.204Z,5.60
2019-02-11T04:27:45.272Z,5.60
2019-02-11T04:29:49.206Z,5.60
2019-02-11T04:31:53.121Z,5.70
2019-02-11T04:33:58.321Z,5.60
2019-02-11T04:36:02.390Z,5.70
2019-02-11T04:38:06.519Z,5.70
2019-02-11T04:40:11.773Z,5.60
2019-02-11T04:42:16.571Z,5.60
2019-02-11T04:44:20.430Z,5.60
2019-02-11T04:46:24.778Z,5.60
2019-02-11T04:48:28.690Z,5.60
2019-02-11T04:50:32.575Z,5.60
2019-02-11T04:52:36.574Z,5.60
2019-02-11T04:54:40.530Z,5.60
2019-02-11T04:56:44.510Z,5.60
2019-02-11T04:58:48.409Z,5.60
2019-02-11T05:00:52.256Z,5.60
2019-02-11T05:02:56.195Z,5.60
2019-02-11T05:05:00.095Z,5.60
2019-02-11T05:07:04.307Z,5.60
2019-02-11T05:09:08.258Z,5.60
2019-02-11T05:11:16.258Z,5.60
2019-02-11T05:13:20.433Z,5.60
2019-02-11T05:15:25.997Z,5.60
2019-02-11T05:17:30.247Z,5.50
2019-02-11T05:19:35.392Z,5.40
2019-02-11T05:21:39.709Z,5.40
2019-02-11T05:23:44.016Z,5.40
2019-02-11T05:25:48.302Z,5.30
2019-02-11T05:27:52.232Z,5.30
2019-02-11T05:29:56.693Z,5.30
2019-02-11T05:32:01.014Z,5.30
2019-02-11T05:34:05.294Z,5.30
2019-02-11T05:36:09.506Z,5.30
2019-02-11T05:38:13.356Z,5.30
2019-02-11T05:40:17.238Z,5.30
2019-02-11T05:42:21.162Z,5.20
2019-02-11T05:44:25.442Z,5.30
2019-02-11T05:46:30.555Z,5.30
2019-02-11T05:48:34.541Z,5.30
2019-02-11T05:50:38.456Z,5.30
2019-02-11T05:52:42.324Z,5.40
2019-02-11T05:54:46.359Z,5.40
2019-02-11T05:56:50.259Z,5.40
2019-02-11T05:58:54.141Z,5.40
2019-02-11T06:00:58.146Z,5.40
2019-02-11T06:03:02.046Z,5.40
2019-02-11T06:05:08.266Z,5.40
2019-02-11T06:07:12.157Z,5.50
2019-02-11T06:09:16.002Z,5.40
2019-02-11T06:11:19.943Z,5.40
2019-02-11T06:13:24.012Z,5.40
2019-02-11T06:15:27.990Z,5.40
2019-02-11T06:17:32.096Z,5.30
2019-02-11T06:19:36.015Z,5.30
2019-02-11T06:21:39.878Z,5.30
2019-02-11T06:23:43.895Z,5.20
2019-02-11T06:25:47.814Z,5.20
2019-02-11T06:27:51.678Z,5.20
2019-02-11T06:29:55.609Z,5.20
2019-02-11T06:31:59.513Z,5.20
2019-02-11T06:34:03.457Z,5.20
2019-02-11T06:36:12.467Z,5.20
2019-02-11T06:38:12.839Z,5.20
2019-02-11T06:40:16.777Z,5.20
2019-02-11T06:42:20.621Z,5.20
2019-02-11T06:44:24.537Z,5.20
2019-02-11T06:46:29.284Z,5.20
2019-02-11T06:48:33.197Z,5.10
2019-02-11T06:50:37.142Z,5.10
2019-02-11T06:52:41.022Z,5.10
2019-02-11T06:54:44.893Z,5.10
2019-02-11T06:56:48.794Z,5.10
2019-02-11T06:58:52.690Z,5.10
2019-02-11T07:00:56.574Z,5.10
2019-02-11T07:03:00.431Z,5.10
2019-02-11T07:05:05.094Z,5.10
2019-02-11T07:07:08.977Z,5.10
2019-02-11T07:09:12.827Z,5.10
2019-02-11T07:11:16.735Z,5.10
2019-02-11T07:13:20.709Z,5.10
2019-02-11T07:15:24.598Z,5.10
2019-02-11T07:17:28.486Z,5.10
2019-02-11T07:19:32.379Z,5.10
2019-02-11T07:21:36.249Z,5.20
2019-02-11T07:23:40.157Z,5.20
2019-02-11T07:25:44.031Z,5.20
2019-02-11T07:27:47.886Z,5.20
2019-02-11T07:29:51.790Z,5.20
2019-02-11T07:31:55.638Z,5.30
2019-02-11T07:33:59.537Z,5.30
2019-02-11T07:36:03.399Z,5.30
2019-02-11T07:38:07.294Z,5.30
2019-02-11T07:40:12.286Z,5.20
2019-02-11T07:42:20.435Z,5.20
2019-02-11T07:44:26.204Z,5.10
2019-02-11T07:46:31.624Z,5.10
2019-02-11T07:48:35.488Z,5.10
2019-02-11T07:50:39.366Z,5.00
2019-02-11T07:52:43.250Z,5.00
2019-02-11T07:54:47.187Z,5.10
2019-02-11T07:56:51.046Z,5.10
2019-02-11T07:58:54.898Z,5.10
2019-02-11T08:00:58.811Z,5.10
2019-02-11T08:03:02.654Z,5.20
2019-02-11T08:05:07.243Z,5.20
2019-02-11T08:07:11.164Z,5.30
2019-02-11T08:09:15.059Z,5.30
2019-02-11T08:11:18.908Z,5.30
2019-02-11T08:13:22.790Z,5.30
2019-02-11T08:15:26.677Z,5.30
2019-02-11T08:17:30.612Z,5.30
2019-02-11T08:19:34.466Z,5.30
2019-02-11T08:21:38.325Z,5.30
2019-02-11T08:23:42.212Z,5.30
2019-02-11T08:25:46.076Z,5.40
2019-02-11T08:27:49.925Z,5.40
2019-02-11T08:29:53.866Z,5.40
2019-02-11T08:31:57.707Z,5.50
2019-02-11T08:34:01.615Z,5.60
2019-02-11T08:36:05.478Z,5.70
2019-02-11T08:38:09.370Z,5.90
2019-02-11T08:40:13.247Z,5.90
2019-02-11T08:42:17.109Z,6.00
2019-02-11T08:44:21.078Z,6.00
2019-02-11T08:46:24.976Z,6.00
2019-02-11T08:48:28.862Z,5.90
2019-02-11T08:50:32.811Z,6.00
2019-02-11T08:52:36.750Z,5.90
2019-02-11T08:54:40.673Z,5.90
2019-02-11T08:56:44.539Z,5.80
2019-02-11T08:58:48.474Z,5.90
2019-02-11T09:00:52.508Z,5.80
2019-02-11T09:02:56.468Z,5.80
2019-02-11T09:05:00.324Z,5.70
2019-02-11T09:07:04.222Z,5.70
2019-02-11T09:09:08.107Z,5.60
2019-02-11T09:11:11.981Z,5.60
2019-02-11T09:13:15.882Z,5.70
2019-02-11T09:15:19.854Z,5.70
2019-02-11T09:17:23.761Z,5.80
2019-02-11T09:19:27.664Z,5.80
2019-02-11T09:21:31.528Z,5.90
2019-02-11T09:23:35.548Z,6.00
2019-02-11T09:25:39.420Z,6.10
2019-02-11T09:27:43.346Z,6.20
2019-02-11T09:29:47.248Z,6.30
2019-02-11T09:31:51.110Z,6.30
2019-02-11T09:33:55.044Z,6.20
2019-02-11T09:35:58.889Z,6.10
2019-02-11T09:38:02.746Z,6.00
2019-02-11T09:40:09.654Z,6.10
2019-02-11T09:42:13.543Z,6.10
2019-02-11T09:44:17.422Z,6.20
2019-02-11T09:46:21.767Z,6.30
2019-02-11T09:48:25.654Z,6.30
2019-02-11T09:50:38.028Z,6.40
2019-02-11T09:52:41.857Z,6.30
2019-02-11T09:54:45.774Z,6.40
2019-02-11T09:56:49.641Z,6.50
2019-02-11T09:58:53.503Z,6.60
2019-02-11T10:00:57.397Z,6.70
2019-02-11T10:03:01.283Z,6.90
2019-02-11T10:05:06.090Z,6.90
2019-02-11T10:07:09.978Z,6.90
2019-02-11T10:09:13.861Z,6.90
2019-02-11T10:11:17.719Z,6.80
2019-02-11T10:13:21.670Z,6.80
2019-02-11T10:15:25.555Z,6.70
2019-02-11T10:17:30.047Z,6.70
2019-02-11T10:19:34.065Z,6.70
2019-02-11T10:21:37.967Z,6.70
2019-02-11T10:23:41.814Z,6.80
2019-02-11T10:25:45.710Z,6.90
2019-02-11T10:27:49.555Z,6.90
2019-02-11T10:29:53.424Z,6.90
2019-02-11T10:31:57.492Z,7.00
2019-02-11T10:34:01.322Z,7.10
2019-02-11T10:36:05.181Z,6.80
2019-02-11T10:38:09.069Z,6.80
2019-02-11T10:40:14.107Z,6.80
2019-02-11T10:42:18.020Z,6.80
2019-02-11T10:44:21.922Z,6.80
2019-02-11T10:46:25.767Z,6.90
2019-02-11T10:48:29.715Z,7.00
2019-02-11T10:50:33.625Z,7.00
2019-02-11T10:52:37.469Z,7.00
2019-02-11T10:54:41.410Z,6.90
2019-02-11T10:56:45.274Z,6.90
2019-02-11T10:58:49.265Z,7.00
2019-02-11T11:00:53.125Z,7.20
2019-02-11T11:02:56.997Z,7.00
2019-02-11T11:05:00.911Z,6.90
2019-02-11T11:07:04.844Z,6.80
2019-02-11T11:09:13.297Z,6.80
2019-02-11T11:11:17.160Z,6.90
2019-02-11T11:13:21.030Z,7.00
2019-02-11T11:15:25.322Z,7.00
2019-02-11T11:17:29.218Z,7.10
2019-02-11T11:19:33.081Z,7.30
2019-02-11T11:21:37.280Z,7.20
2019-02-11T11:23:41.171Z,7.30
2019-02-11T11:25:45.987Z,7.30
2019-02-11T11:27:49.886Z,7.10
2019-02-11T11:29:53.751Z,7.20
2019-02-11T11:31:57.743Z,7.30
2019-02-11T11:34:01.704Z,7.30
2019-02-11T11:36:05.629Z,7.40
2019-02-11T11:38:09.517Z,7.20
2019-02-11T11:40:19.313Z,7.10
2019-02-11T11:42:23.284Z,7.10
2019-02-11T11:44:27.177Z,6.90
2019-02-11T11:46:41.361Z,7.00
2019-02-11T11:48:36.555Z,7.00
2019-02-11T11:50:40.505Z,7.20
2019-02-11T11:52:44.389Z,7.30
2019-02-11T11:54:48.255Z,7.20
2019-02-11T11:56:52.184Z,7.50
2019-02-11T11:58:56.065Z,7.60
2019-02-11T12:00:59.933Z,7.80
2019-02-11T12:03:05.559Z,7.40
2019-02-11T12:05:09.457Z,7.50
2019-02-11T12:07:13.747Z,7.40
2019-02-11T12:09:17.633Z,7.40
2019-02-11T12:11:21.546Z,7.50
2019-02-11T12:13:25.741Z,7.60
2019-02-11T12:15:29.595Z,7.50
2019-02-11T12:17:33.457Z,7.60
2019-02-11T12:19:37.355Z,7.50
2019-02-11T12:21:41.205Z,7.40
2019-02-11T12:23:45.103Z,7.30
2019-02-11T12:25:49.016Z,7.30
2019-02-11T12:27:52.875Z,7.30
2019-02-11T12:29:56.731Z,7.30
2019-02-11T12:32:00.656Z,7.10
2019-02-11T12:34:04.522Z,7.00
2019-02-11T12:36:08.415Z,7.30
2019-02-11T12:38:12.309Z,7.50
2019-02-11T12:40:16.181Z,7.80
2019-02-11T12:42:20.174Z,8.00
2019-02-11T12:44:24.020Z,8.00
2019-02-11T12:46:27.967Z,8.70
2019-02-11T12:48:31.818Z,8.90
2019-02-11T12:50:35.678Z,9.00
2019-02-11T12:52:39.621Z,9.30
2019-02-11T12:54:43.491Z,9.50
2019-02-11T12:56:47.383Z,9.50
2019-02-11T12:58:51.282Z,9.10
2019-02-11T13:00:55.133Z,9.80
2019-02-11T13:02:59.023Z,9.70
2019-02-11T13:05:02.921Z,9.60
2019-02-11T13:07:06.829Z,9.20
2019-02-11T13:09:10.728Z,8.50
2019-02-11T13:11:14.658Z,9.00
2019-02-11T13:13:18.614Z,9.40
2019-02-11T13:15:56.459Z,9.60
2019-02-11T13:17:33.889Z,10.40
2019-02-11T13:19:33.580Z,10.10
2019-02-11T13:21:37.474Z,9.60
2019-02-11T13:23:41.341Z,9.00
2019-02-11T13:25:45.247Z,8.80
2019-02-11T13:27:49.141Z,9.00
2019-02-11T13:29:53.141Z,8.50
2019-02-11T13:31:57.042Z,9.00
2019-02-11T13:34:00.942Z,8.80
2019-02-11T13:36:05.799Z,8.70
2019-02-11T13:38:09.710Z,8.70
2019-02-11T13:40:13.786Z,8.80
2019-02-11T13:42:17.717Z,10.00
2019-02-11T13:44:21.579Z,10.90
2019-02-11T13:46:25.463Z,11.70
2019-02-11T13:48:33.306Z,12.00
2019-02-11T13:50:34.969Z,11.80
2019-02-11T13:52:38.869Z,12.00
2019-02-11T13:54:43.069Z,11.10
2019-02-11T13:56:46.963Z,9.50
2019-02-11T13:58:52.129Z,9.00
2019-02-11T14:00:56.532Z,8.60
2019-02-11T14:03:02.708Z,7.90
2019-02-11T14:05:07.475Z,7.60
2019-02-11T14:07:11.322Z,7.50
2019-02-11T14:09:15.202Z,7.50
2019-02-11T14:11:19.089Z,7.50
2019-02-11T14:13:22.970Z,7.90
2019-02-11T14:15:26.974Z,7.90
2019-02-11T14:17:30.864Z,8.10
2019-02-11T14:19:34.741Z,9.70
2019-02-11T14:21:38.636Z,11.20
2019-02-11T14:23:42.547Z,10.30
2019-02-11T14:25:47.612Z,9.70
2019-02-11T14:27:51.801Z,8.80
2019-02-11T14:29:55.709Z,8.00
2019-02-11T14:31:59.656Z,7.80
2019-02-11T14:34:03.573Z,9.50
2019-02-11T14:36:07.521Z,10.60
2019-02-11T14:38:11.384Z,10.70
2019-02-11T14:40:15.557Z,11.20
2019-02-11T14:42:19.504Z,11.50
2019-02-11T14:44:23.369Z,12.00
2019-02-11T14:46:27.235Z,12.50
2019-02-11T14:48:31.123Z,12.70
2019-02-11T14:50:35.009Z,12.20
2019-02-11T14:52:39.022Z,12.30
2019-02-11T14:54:42.913Z,12.50
2019-02-11T14:56:46.818Z,12.40
2019-02-11T14:58:50.905Z,12.80
2019-02-11T15:00:54.861Z,12.60
2019-02-11T15:02:58.754Z,12.10
2019-02-11T15:05:02.642Z,12.00
2019-02-11T15:07:06.565Z,12.30
2019-02-11T15:09:10.479Z,11.90
2019-02-11T15:11:14.320Z,11.50
2019-02-11T15:13:18.217Z,11.70
2019-02-11T15:15:22.076Z,11.40
2019-02-11T15:17:25.962Z,10.90
2019-02-11T15:19:29.913Z,11.10
2019-02-11T15:21:33.759Z,11.10
2019-02-11T15:23:37.709Z,10.80
2019-02-11T15:25:41.620Z,10.60
2019-02-11T15:27:45.497Z,10.50
2019-02-11T15:29:49.459Z,10.70
2019-02-11T15:31:53.322Z,10.10
2019-02-11T15:33:57.172Z,10.00
2019-02-11T15:36:01.052Z,9.60
2019-02-11T15:38:04.952Z,9.30
2019-02-11T15:40:11.543Z,8.50
2019-02-11T15:42:15.396Z,8.30
2019-02-11T15:44:19.258Z,7.80
2019-02-11T15:46:23.192Z,7.40
2019-02-11T15:48:27.038Z,7.30
2019-02-11T15:50:30.902Z,7.30
2019-02-11T15:52:34.818Z,7.10
2019-02-11T15:54:38.671Z,7.20
2019-02-11T15:56:42.521Z,7.00
2019-02-11T15:58:46.434Z,7.10
2019-02-11T16:00:50.292Z,7.00
2019-02-11T16:02:54.279Z,7.00
2019-02-11T16:05:02.348Z,6.90
2019-02-11T16:07:03.662Z,6.80
2019-02-11T16:09:07.545Z,6.90
2019-02-11T16:11:11.418Z,6.80
2019-02-11T16:13:15.452Z,6.80
2019-02-11T16:15:19.419Z,6.80
2019-02-11T16:17:23.473Z,6.70
2019-02-11T16:19:27.392Z,6.60
2019-02-11T16:21:31.358Z,6.70
2019-02-11T16:23:35.233Z,6.50
2019-02-11T16:25:39.136Z,6.40
2019-02-11T16:27:42.993Z,6.30
2019-02-11T16:29:46.885Z,6.30
2019-02-11T16:31:50.773Z,6.20
2019-02-11T16:33:54.678Z,6.30
2019-02-11T16:35:58.615Z,6.20
2019-02-11T16:38:02.510Z,6.20
2019-02-11T16:40:09.631Z,6.20
2019-02-11T16:42:13.547Z,6.10
2019-02-11T16:44:17.446Z,5.90
2019-02-11T16:46:22.332Z,5.90
2019-02-11T16:48:26.332Z,5.90
2019-02-11T16:50:30.265Z,6.00
2019-02-11T16:52:34.188Z,6.00
2019-02-11T16:54:38.032Z,5.80
2019-02-11T16:56:41.941Z,5.90
2019-02-11T16:58:45.869Z,5.80
2019-02-11T17:00:49.794Z,6.00
2019-02-11T17:02:53.692Z,6.00
2019-02-11T17:04:57.562Z,6.00
2019-02-11T17:07:01.434Z,6.00
2019-02-11T17:09:06.437Z,6.10
2019-02-11T17:11:10.334Z,6.00
2019-02-11T17:13:14.211Z,6.10
2019-02-11T17:15:21.286Z,5.90
2019-02-11T17:17:25.180Z,5.80
2019-02-11T17:19:29.057Z,5.80
2019-02-11T17:21:32.943Z,5.80
2019-02-11T17:23:36.921Z,5.80
2019-02-11T17:25:40.790Z,5.80
2019-02-11T17:27:44.670Z,5.80
2019-02-11T17:29:48.659Z,5.80
2019-02-11T17:31:52.509Z,5.90
2019-02-11T17:33:56.418Z,5.80
2019-02-11T17:36:00.302Z,5.80
2019-02-11T17:38:04.173Z,5.80
2019-02-11T17:40:11.824Z,5.80
2019-02-11T17:42:15.854Z,5.70
2019-02-11T17:44:19.706Z,5.60
2019-02-11T17:46:23.607Z,5.70
2019-02-11T17:48:27.514Z,5.60
2019-02-11T17:50:31.404Z,5.50
2019-02-11T17:52:35.335Z,5.50
2019-02-11T17:54:39.220Z,5.40
2019-02-11T17:56:43.098Z,5.40
2019-02-11T17:58:47.005Z,5.30
2019-02-11T18:00:55.398Z,5.20
2019-02-11T18:02:59.314Z,5.20
2019-02-11T18:05:03.199Z,5.20
2019-02-11T18:07:07.099Z,5.00
2019-02-11T18:09:11.009Z,5.00
2019-02-11T18:11:14.889Z,4.90
2019-02-11T18:13:18.741Z,4.90
2019-02-11T18:15:22.689Z,4.80
2019-02-11T18:17:26.537Z,4.90
2019-02-11T18:19:30.416Z,4.90
2019-02-11T18:21:34.327Z,4.80
2019-02-11T18:23:38.191Z,4.90
2019-02-11T18:25:42.053Z,4.80
2019-02-11T18:27:45.949Z,4.90
2019-02-11T18:29:49.804Z,4.90
2019-02-11T18:31:53.713Z,5.00
2019-02-11T18:33:57.617Z,5.00
2019-02-11T18:36:01.486Z,5.00
2019-02-11T18:38:05.427Z,5.00
2019-02-11T18:40:12.120Z,5.00
2019-02-11T18:42:16.134Z,5.00
2019-02-11T18:44:19.988Z,5.00
2019-02-11T18:46:23.881Z,5.10
2019-02-11T18:48:27.806Z,5.20
2019-02-11T18:50:31.707Z,5.20
2019-02-11T18:52:35.617Z,5.20
2019-02-11T18:54:39.483Z,5.30
2019-02-11T18:56:43.377Z,5.30
2019-02-11T18:58:47.294Z,5.30
2019-02-11T19:00:51.147Z,5.30
2019-02-11T19:02:54.989Z,5.20
2019-02-11T19:04:59.041Z,5.30
2019-02-11T19:07:02.944Z,5.30
2019-02-11T19:09:08.364Z,5.30
2019-02-11T19:11:12.258Z,5.30
2019-02-11T19:13:16.128Z,5.40
2019-02-11T19:15:20.493Z,5.30
2019-02-11T19:17:24.457Z,5.30
2019-02-11T19:19:28.311Z,5.30
2019-02-11T19:21:32.189Z,5.30
2019-02-11T19:23:36.073Z,5.40
2019-02-11T19:25:40.001Z,5.40
2019-02-11T19:27:43.941Z,5.40
2019-02-11T19:29:47.817Z,5.40
2019-02-11T19:31:51.690Z,5.40
2019-02-11T19:33:55.569Z,5.40
2019-02-11T19:35:59.455Z,5.40
2019-02-11T19:38:03.396Z,5.50
2019-02-11T19:40:10.407Z,5.50
2019-02-11T19:42:14.270Z,5.50
2019-02-11T19:44:18.199Z,5.50
2019-02-11T19:46:22.092Z,5.50
2019-02-11T19:48:26.284Z,5.50
2019-02-11T19:50:30.143Z,5.50
2019-02-11T19:52:34.081Z,5.50
2019-02-11T19:54:38.008Z,5.50
2019-02-11T19:56:41.905Z,5.60
2019-02-11T19:58:45.802Z,5.60
2019-02-11T20:00:49.666Z,5.50
2019-02-11T20:02:53.678Z,5.50
2019-02-11T20:04:57.635Z,5.50
2019-02-11T20:07:01.489Z,5.50
2019-02-11T20:09:06.023Z,5.50
2019-02-11T20:11:09.920Z,5.50
2019-02-11T20:13:13.912Z,5.50
2019-02-11T20:15:20.449Z,5.50
2019-02-11T20:17:24.270Z,5.50
2019-02-11T20:19:28.223Z,5.50
2019-02-11T20:21:32.051Z,5.50
2019-02-11T20:23:35.939Z,5.50
2019-02-11T20:25:39.834Z,5.50
2019-02-11T20:27:43.750Z,5.50
2019-02-11T20:29:47.613Z,5.50
2019-02-11T20:31:51.539Z,5.50
2019-02-11T20:33:55.425Z,5.50
2019-02-11T20:35:59.292Z,5.50
2019-02-11T20:38:03.326Z,5.50
2019-02-11T20:40:10.158Z,5.50
2019-02-11T20:42:14.035Z,5.40
2019-02-11T20:44:17.956Z,5.50
2019-02-11T20:46:21.886Z,5.50
2019-02-11T20:48:28.048Z,5.40
2019-02-11T20:50:32.102Z,5.40
2019-02-11T20:52:35.990Z,5.40
2019-02-11T20:54:39.994Z,5.40
2019-02-11T20:56:43.991Z,5.30
2019-02-11T20:58:47.903Z,5.40
2019-02-11T21:00:51.857Z,5.40
2019-02-11T21:02:55.797Z,5.30
2019-02-11T21:04:59.667Z,5.30
2019-02-11T21:07:03.817Z,5.10
2019-02-11T21:09:08.525Z,5.00
2019-02-11T21:11:12.758Z,4.90
2019-02-11T21:13:16.961Z,4.90
2019-02-11T21:15:21.141Z,4.90
2019-02-11T21:17:25.250Z,4.90
2019-02-11T21:19:32.384Z,4.80
2019-02-11T21:21:36.325Z,4.80
2019-02-11T21:23:40.297Z,4.80
2019-02-11T21:25:44.334Z,4.80
2019-02-11T21:27:48.330Z,4.80
2019-02-11T21:29:52.222Z,4.80
2019-02-11T21:31:56.096Z,4.90
2019-02-11T21:33:59.993Z,4.90
2019-02-11T21:36:04.476Z,4.90
2019-02-11T21:38:08.323Z,5.00
2019-02-11T21:40:12.498Z,4.70
2019-02-11T21:42:16.669Z,4.80
2019-02-11T21:44:20.575Z,4.90
2019-02-11T21:46:25.109Z,4.90
2019-02-11T21:48:29.340Z,4.90
2019-02-11T21:50:33.538Z,4.80
2019-02-11T21:52:38.270Z,4.80
2019-02-11T21:54:42.486Z,4.80
2019-02-11T21:56:46.583Z,4.90
2019-02-11T21:58:50.445Z,4.80
2019-02-11T22:01:02.068Z,4.80
2019-02-11T22:03:01.989Z,4.90
2019-02-11T22:05:06.766Z,4.90
2019-02-11T22:07:10.781Z,4.90
2019-02-11T22:09:14.709Z,4.80
2019-02-11T22:11:18.568Z,4.80
2019-02-11T22:13:22.454Z,4.90
2019-02-11T22:15:26.298Z,4.90
2019-02-11T22:17:30.454Z,4.90
2019-02-11T22:19:34.382Z,4.90
2019-02-11T22:21:38.295Z,4.90
2019-02-11T22:23:42.224Z,4.80
2019-02-11T22:25:46.235Z,4.80
2019-02-11T22:27:50.124Z,4.80
2019-02-11T22:29:53.986Z,4.70
2019-02-11T22:31:57.902Z,4.80
2019-02-11T22:34:01.821Z,4.70
2019-02-11T22:36:05.714Z,4.70
2019-02-11T22:38:10.501Z,4.80
2019-02-11T22:40:15.494Z,4.80
2019-02-11T22:42:19.694Z,4.70
2019-02-11T22:44:23.553Z,4.80
2019-02-11T22:46:27.602Z,4.80
2019-02-11T22:48:31.499Z,4.80
2019-02-11T22:50:42.867Z,4.70
2019-02-11T22:52:40.859Z,4.70
2019-02-11T22:54:44.784Z,4.70
2019-02-11T22:56:48.653Z,4.60
2019-02-11T22:58:52.521Z,4.60
2019-02-11T23:00:59.646Z,4.70
2019-02-11T23:03:06.806Z,4.80
2019-02-11T23:05:10.692Z,4.70
2019-02-11T23:07:14.568Z,4.70
2019-02-11T23:09:18.463Z,4.70
2019-02-11T23:11:22.611Z,4.70
2019-02-11T23:13:26.497Z,4.60
2019-02-11T23:15:30.617Z,4.60
2019-02-11T23:17:34.497Z,4.60
2019-02-11T23:19:38.414Z,4.50
2019-02-11T23:21:42.623Z,4.40
2019-02-11T23:23:46.508Z,4.30
2019-02-11T23:25:50.456Z,4.30
2019-02-11T23:27:54.346Z,4.30
2019-02-11T23:29:58.243Z,4.30
2019-02-11T23:32:02.675Z,4.30
2019-02-11T23:34:06.574Z,4.20
2019-02-11T23:36:10.472Z,4.10
2019-02-11T23:38:14.382Z,4.10
2019-02-11T23:40:18.358Z,4.00
2019-02-11T23:42:22.246Z,4.00
2019-02-11T23:44:26.154Z,4.00
2019-02-11T23:46:30.478Z,4.10
2019-02-11T23:48:34.410Z,4.00
2019-02-11T23:50:38.332Z,4.00
2019-02-11T23:52:42.208Z,3.90
2019-02-11T23:54:46.118Z,4.00
2019-02-11T23:56:50.061Z,4.10
2019-02-11T23:58:53.907Z,4.10
